sensor_id;sensor_type;location;lat;lon;timestamp;temperature;humidity
21207;DHT22;10761;48.532;8.026;2023-03-31T00:01:11;14.30;99.90
21207;DHT22;10761;48.532;8.026;2023-03-31T00:03:37;14.30;99.90
21207;DHT22;10761;48.532;8.026;2023-03-31T00:06:09;14.30;99.90
21207;DHT22;10761;48.532;8.026;2023-03-31T00:08:35;14.30;99.90
21207;DHT22;10761;48.532;8.026;2023-03-31T00:11:03;14.20;99.90
21207;DHT22;10761;48.532;8.026;2023-03-31T00:13:30;14.20;99.90
21207;DHT22;10761;48.532;8.026;2023-03-31T00:16:01;14.30;99.90
21207;DHT22;10761;48.532;8.026;2023-03-31T00:18:27;14.30;99.90
21207;DHT22;10761;48.532;8.026;2023-03-31T00:20:54;14.30;99.90
21207;DHT22;10761;48.532;8.026;2023-03-31T00:23:26;14.30;99.90
21207;DHT22;10761;48.532;8.026;2023-03-31T00:25:53;14.20;99.90
21207;DHT22;10761;48.532;8.026;2023-03-31T00:28:19;14.10;99.90
21207;DHT22;10761;48.532;8.026;2023-03-31T00:30:44;14.10;99.90
21207;DHT22;10761;48.532;8.026;2023-03-31T00:33:12;14.10;99.90
21207;DHT22;10761;48.532;8.026;2023-03-31T00:35:38;14.10;99.90
21207;DHT22;10761;48.532;8.026;2023-03-31T00:38:04;14.00;99.90
21207;DHT22;10761;48.532;8.026;2023-03-31T00:40:33;14.00;99.90
21207;DHT22;10761;48.532;8.026;2023-03-31T00:42:59;14.00;99.90
21207;DHT22;10761;48.532;8.026;2023-03-31T00:45:28;14.00;99.90
21207;DHT22;10761;48.532;8.026;2023-03-31T00:48:04;14.10;99.90
21207;DHT22;10761;48.532;8.026;2023-03-31T00:50:39;14.10;1.00
21207;DHT22;10761;48.532;8.026;2023-03-31T00:53:12;14.00;1.00
21207;DHT22;10761;48.532;8.026;2023-03-31T00:55:45;13.80;1.00
21207;DHT22;10761;48.532;8.026;2023-03-31T00:58:12;13.50;1.00
21207;DHT22;10761;48.532;8.026;2023-03-31T01:00:39;13.20;1.00
21207;DHT22;10761;48.532;8.026;2023-03-31T01:03:06;12.80;1.00
21207;DHT22;10761;48.532;8.026;2023-03-31T01:05:39;12.50;1.00
21207;DHT22;10761;48.532;8.026;2023-03-31T01:08:07;12.30;99.90
21207;DHT22;10761;48.532;8.026;2023-03-31T01:10:36;12.10;99.90
21207;DHT22;10761;48.532;8.026;2023-03-31T01:13:07;11.90;1.00
21207;DHT22;10761;48.532;8.026;2023-03-31T01:15:34;11.80;1.00
21207;DHT22;10761;48.532;8.026;2023-03-31T01:18:00;11.70;1.00
21207;DHT22;10761;48.532;8.026;2023-03-31T01:20:57;11.60;1.00
21207;DHT22;10761;48.532;8.026;2023-03-31T01:23:56;11.60;99.90
21207;DHT22;10761;48.532;8.026;2023-03-31T01:29:07;11.50;99.90
21207;DHT22;10761;48.532;8.026;2023-03-31T01:48:13;11.30;99.90
21207;DHT22;10761;48.532;8.026;2023-03-31T01:51:06;11.30;40.40
21207;DHT22;10761;48.532;8.026;2023-03-31T01:54:29;11.30;99.90
21207;DHT22;10761;48.532;8.026;2023-03-31T01:56:57;11.30;99.90
21207;DHT22;10761;48.532;8.026;2023-03-31T02:02:20;11.20;1.00
21207;DHT22;10761;48.532;8.026;2023-03-31T02:04:51;11.20;1.00
21207;DHT22;10761;48.532;8.026;2023-03-31T02:07:23;11.20;1.00
21207;DHT22;10761;48.532;8.026;2023-03-31T02:09:56;11.20;1.00
21207;DHT22;10761;48.532;8.026;2023-03-31T02:12:25;11.10;1.00
21207;DHT22;10761;48.532;8.026;2023-03-31T02:14:54;11.10;1.00
21207;DHT22;10761;48.532;8.026;2023-03-31T02:17:23;11.10;1.00
21207;DHT22;10761;48.532;8.026;2023-03-31T02:19:56;11.20;1.00
21207;DHT22;10761;48.532;8.026;2023-03-31T02:22:23;11.10;1.00
21207;DHT22;10761;48.532;8.026;2023-03-31T02:24:51;11.10;99.90
21207;DHT22;10761;48.532;8.026;2023-03-31T02:27:18;11.20;99.90
21207;DHT22;10761;48.532;8.026;2023-03-31T02:29:47;11.20;1.00
21207;DHT22;10761;48.532;8.026;2023-03-31T02:32:29;11.20;1.00
21207;DHT22;10761;48.532;8.026;2023-03-31T02:34:57;11.30;92.90
21207;DHT22;10761;48.532;8.026;2023-03-31T02:37:24;11.40;99.90
21207;DHT22;10761;48.532;8.026;2023-03-31T02:39:52;11.50;99.90
21207;DHT22;10761;48.532;8.026;2023-03-31T02:42:20;11.50;1.00
21207;DHT22;10761;48.532;8.026;2023-03-31T02:44:46;11.50;29.20
21207;DHT22;10761;48.532;8.026;2023-03-31T02:47:13;11.50;1.00
21207;DHT22;10761;48.532;8.026;2023-03-31T02:49:44;11.50;99.90
21207;DHT22;10761;48.532;8.026;2023-03-31T02:52:25;11.50;99.90
21207;DHT22;10761;48.532;8.026;2023-03-31T03:06:08;11.30;99.90
21207;DHT22;10761;48.532;8.026;2023-03-31T03:11:38;11.40;99.90
21207;DHT22;10761;48.532;8.026;2023-03-31T03:14:21;11.40;8.50
21207;DHT22;10761;48.532;8.026;2023-03-31T03:17:04;11.30;1.00
21207;DHT22;10761;48.532;8.026;2023-03-31T03:19:31;11.20;1.00
21207;DHT22;10761;48.532;8.026;2023-03-31T03:21:57;11.10;99.90
21207;DHT22;10761;48.532;8.026;2023-03-31T03:24:23;11.10;99.90
21207;DHT22;10761;48.532;8.026;2023-03-31T03:26:54;11.10;1.00
21207;DHT22;10761;48.532;8.026;2023-03-31T03:29:20;11.10;1.00
21207;DHT22;10761;48.532;8.026;2023-03-31T03:31:45;11.10;84.70
21207;DHT22;10761;48.532;8.026;2023-03-31T03:34:11;11.00;99.90
21207;DHT22;10761;48.532;8.026;2023-03-31T03:36:37;11.10;1.00
21207;DHT22;10761;48.532;8.026;2023-03-31T03:39:04;11.10;1.00
21207;DHT22;10761;48.532;8.026;2023-03-31T03:41:31;11.20;1.00
21207;DHT22;10761;48.532;8.026;2023-03-31T03:43:58;11.30;99.90
21207;DHT22;10761;48.532;8.026;2023-03-31T03:46:24;11.40;1.00
21207;DHT22;10761;48.532;8.026;2023-03-31T03:48:50;11.60;1.00
21207;DHT22;10761;48.532;8.026;2023-03-31T03:51:16;11.70;1.00
21207;DHT22;10761;48.532;8.026;2023-03-31T03:53:41;11.80;1.00
21207;DHT22;10761;48.532;8.026;2023-03-31T03:56:07;12.10;1.00
21207;DHT22;10761;48.532;8.026;2023-03-31T03:58:32;12.40;1.00
21207;DHT22;10761;48.532;8.026;2023-03-31T04:00:58;12.40;99.90
21207;DHT22;10761;48.532;8.026;2023-03-31T04:03:24;12.50;99.90
21207;DHT22;10761;48.532;8.026;2023-03-31T04:05:50;12.60;1.00
21207;DHT22;10761;48.532;8.026;2023-03-31T04:08:17;12.80;1.00
21207;DHT22;10761;48.532;8.026;2023-03-31T04:10:46;12.90;1.00
21207;DHT22;10761;48.532;8.026;2023-03-31T04:13:17;13.00;99.90
21207;DHT22;10761;48.532;8.026;2023-03-31T04:15:44;13.00;99.90
21207;DHT22;10761;48.532;8.026;2023-03-31T04:18:10;13.00;1.00
21207;DHT22;10761;48.532;8.026;2023-03-31T04:20:46;12.90;99.90
21207;DHT22;10761;48.532;8.026;2023-03-31T04:23:22;12.80;1.00
21207;DHT22;10761;48.532;8.026;2023-03-31T04:25:50;12.60;1.00
21207;DHT22;10761;48.532;8.026;2023-03-31T04:28:16;12.50;1.00
21207;DHT22;10761;48.532;8.026;2023-03-31T04:30:42;12.30;1.00
21207;DHT22;10761;48.532;8.026;2023-03-31T04:33:08;12.20;1.00
21207;DHT22;10761;48.532;8.026;2023-03-31T04:35:33;12.20;1.00
21207;DHT22;10761;48.532;8.026;2023-03-31T04:38:22;12.10;99.90
21207;DHT22;10761;48.532;8.026;2023-03-31T04:40:50;12.10;1.00
21207;DHT22;10761;48.532;8.026;2023-03-31T04:43:16;12.00;99.90
21207;DHT22;10761;48.532;8.026;2023-03-31T04:45:43;11.90;99.90
21207;DHT22;10761;48.532;8.026;2023-03-31T04:48:08;11.90;1.00
21207;DHT22;10761;48.532;8.026;2023-03-31T04:50:34;11.90;99.90
21207;DHT22;10761;48.532;8.026;2023-03-31T04:53:01;11.90;1.00
21207;DHT22;10761;48.532;8.026;2023-03-31T04:55:27;11.80;97.30
21207;DHT22;10761;48.532;8.026;2023-03-31T04:57:53;11.80;99.90
21207;DHT22;10761;48.532;8.026;2023-03-31T05:00:19;11.70;99.90
21207;DHT22;10761;48.532;8.026;2023-03-31T05:02:45;11.70;99.90
21207;DHT22;10761;48.532;8.026;2023-03-31T05:05:11;11.70;1.00
21207;DHT22;10761;48.532;8.026;2023-03-31T05:07:37;11.70;99.90
21207;DHT22;10761;48.532;8.026;2023-03-31T05:10:03;11.70;99.90
21207;DHT22;10761;48.532;8.026;2023-03-31T05:12:32;11.70;1.00
21207;DHT22;10761;48.532;8.026;2023-03-31T05:14:58;11.70;1.00
21207;DHT22;10761;48.532;8.026;2023-03-31T05:17:23;11.70;1.00
21207;DHT22;10761;48.532;8.026;2023-03-31T05:19:49;11.60;1.00
21207;DHT22;10761;48.532;8.026;2023-03-31T05:22:15;11.60;1.00
21207;DHT22;10761;48.532;8.026;2023-03-31T05:24:45;11.60;1.00
21207;DHT22;10761;48.532;8.026;2023-03-31T05:27:10;11.50;1.00
21207;DHT22;10761;48.532;8.026;2023-03-31T05:29:36;11.60;1.00
21207;DHT22;10761;48.532;8.026;2023-03-31T05:32:01;11.60;1.00
21207;DHT22;10761;48.532;8.026;2023-03-31T05:34:27;11.60;1.00
21207;DHT22;10761;48.532;8.026;2023-03-31T05:36:53;11.70;1.00
21207;DHT22;10761;48.532;8.026;2023-03-31T05:39:18;11.70;1.00
21207;DHT22;10761;48.532;8.026;2023-03-31T05:41:44;11.70;1.00
21207;DHT22;10761;48.532;8.026;2023-03-31T05:44:10;11.70;1.00
21207;DHT22;10761;48.532;8.026;2023-03-31T05:46:35;11.60;1.00
21207;DHT22;10761;48.532;8.026;2023-03-31T05:49:01;11.70;1.00
21207;DHT22;10761;48.532;8.026;2023-03-31T05:51:27;11.60;1.00
21207;DHT22;10761;48.532;8.026;2023-03-31T05:53:52;11.50;1.00
21207;DHT22;10761;48.532;8.026;2023-03-31T05:56:18;11.40;1.00
21207;DHT22;10761;48.532;8.026;2023-03-31T05:58:44;11.40;1.00
21207;DHT22;10761;48.532;8.026;2023-03-31T06:01:16;11.40;1.00
21207;DHT22;10761;48.532;8.026;2023-03-31T06:03:45;11.40;1.00
21207;DHT22;10761;48.532;8.026;2023-03-31T06:06:11;11.40;1.00
21207;DHT22;10761;48.532;8.026;2023-03-31T06:08:41;11.40;1.00
21207;DHT22;10761;48.532;8.026;2023-03-31T06:11:10;11.40;1.00
21207;DHT22;10761;48.532;8.026;2023-03-31T06:13:36;11.30;38.10
21207;DHT22;10761;48.532;8.026;2023-03-31T06:16:02;11.20;43.00
21207;DHT22;10761;48.532;8.026;2023-03-31T06:18:29;11.20;96.90
21207;DHT22;10761;48.532;8.026;2023-03-31T06:20:56;11.10;1.00
21207;DHT22;10761;48.532;8.026;2023-03-31T06:23:22;11.10;19.00
21207;DHT22;10761;48.532;8.026;2023-03-31T06:25:48;11.10;1.00
21207;DHT22;10761;48.532;8.026;2023-03-31T06:28:14;11.10;1.00
21207;DHT22;10761;48.532;8.026;2023-03-31T06:30:40;11.10;1.00
21207;DHT22;10761;48.532;8.026;2023-03-31T06:33:06;11.10;1.00
21207;DHT22;10761;48.532;8.026;2023-03-31T06:35:31;11.00;1.00
21207;DHT22;10761;48.532;8.026;2023-03-31T06:37:57;11.00;1.00
21207;DHT22;10761;48.532;8.026;2023-03-31T06:40:23;11.00;1.00
21207;DHT22;10761;48.532;8.026;2023-03-31T06:42:49;11.00;1.00
21207;DHT22;10761;48.532;8.026;2023-03-31T06:45:14;11.00;1.00
21207;DHT22;10761;48.532;8.026;2023-03-31T06:47:40;11.00;99.90
21207;DHT22;10761;48.532;8.026;2023-03-31T06:50:07;11.00;99.90
21207;DHT22;10761;48.532;8.026;2023-03-31T06:52:34;11.00;99.90
21207;DHT22;10761;48.532;8.026;2023-03-31T06:55:00;11.00;99.90
21207;DHT22;10761;48.532;8.026;2023-03-31T06:57:26;11.10;1.00
21207;DHT22;10761;48.532;8.026;2023-03-31T06:59:52;11.10;1.00
21207;DHT22;10761;48.532;8.026;2023-03-31T07:02:17;11.20;99.90
21207;DHT22;10761;48.532;8.026;2023-03-31T07:04:43;11.30;1.00
21207;DHT22;10761;48.532;8.026;2023-03-31T07:07:09;11.40;1.00
21207;DHT22;10761;48.532;8.026;2023-03-31T07:09:35;11.40;1.00
21207;DHT22;10761;48.532;8.026;2023-03-31T07:12:01;11.40;1.00
21207;DHT22;10761;48.532;8.026;2023-03-31T07:14:30;11.50;1.00
21207;DHT22;10761;48.532;8.026;2023-03-31T07:16:56;11.50;1.00
21207;DHT22;10761;48.532;8.026;2023-03-31T07:19:22;11.60;1.00
21207;DHT22;10761;48.532;8.026;2023-03-31T07:21:48;11.70;99.90
21207;DHT22;10761;48.532;8.026;2023-03-31T07:24:13;11.80;1.00
21207;DHT22;10761;48.532;8.026;2023-03-31T07:26:39;11.90;1.00
21207;DHT22;10761;48.532;8.026;2023-03-31T07:29:05;11.90;99.90
21207;DHT22;10761;48.532;8.026;2023-03-31T07:31:30;12.00;1.00
21207;DHT22;10761;48.532;8.026;2023-03-31T07:33:56;12.10;1.00
21207;DHT22;10761;48.532;8.026;2023-03-31T07:36:22;12.20;99.90
21207;DHT22;10761;48.532;8.026;2023-03-31T07:38:48;12.20;1.00
21207;DHT22;10761;48.532;8.026;2023-03-31T07:41:16;12.30;1.00
21207;DHT22;10761;48.532;8.026;2023-03-31T07:43:42;12.40;99.90
21207;DHT22;10761;48.532;8.026;2023-03-31T07:46:26;12.40;1.00
21207;DHT22;10761;48.532;8.026;2023-03-31T07:48:53;12.50;99.90
21207;DHT22;10761;48.532;8.026;2023-03-31T07:51:21;12.50;99.90
21207;DHT22;10761;48.532;8.026;2023-03-31T07:53:47;12.50;1.00
21207;DHT22;10761;48.532;8.026;2023-03-31T07:56:22;12.60;5.20
21207;DHT22;10761;48.532;8.026;2023-03-31T07:58:48;12.60;1.00
21207;DHT22;10761;48.532;8.026;2023-03-31T08:01:15;12.70;1.00
21207;DHT22;10761;48.532;8.026;2023-03-31T08:03:42;12.80;1.00
21207;DHT22;10761;48.532;8.026;2023-03-31T08:06:08;12.90;1.00
21207;DHT22;10761;48.532;8.026;2023-03-31T08:08:33;12.90;1.00
21207;DHT22;10761;48.532;8.026;2023-03-31T08:11:02;12.90;1.00
21207;DHT22;10761;48.532;8.026;2023-03-31T08:13:28;12.90;1.00
21207;DHT22;10761;48.532;8.026;2023-03-31T08:15:54;12.90;1.00
21207;DHT22;10761;48.532;8.026;2023-03-31T08:18:19;12.80;1.00
21207;DHT22;10761;48.532;8.026;2023-03-31T08:20:45;12.80;1.00
21207;DHT22;10761;48.532;8.026;2023-03-31T08:23:14;12.80;1.00
21207;DHT22;10761;48.532;8.026;2023-03-31T08:25:40;12.70;18.00
21207;DHT22;10761;48.532;8.026;2023-03-31T08:28:06;12.80;99.90
21207;DHT22;10761;48.532;8.026;2023-03-31T08:30:36;12.80;99.90
21207;DHT22;10761;48.532;8.026;2023-03-31T08:33:01;12.80;1.00
21207;DHT22;10761;48.532;8.026;2023-03-31T08:35:28;13.00;99.90
21207;DHT22;10761;48.532;8.026;2023-03-31T08:37:53;12.90;99.90
21207;DHT22;10761;48.532;8.026;2023-03-31T08:40:22;13.00;99.90
21207;DHT22;10761;48.532;8.026;2023-03-31T08:42:50;13.00;99.90
21207;DHT22;10761;48.532;8.026;2023-03-31T08:47:51;13.10;83.50
21207;DHT22;10761;48.532;8.026;2023-03-31T08:50:24;13.60;1.00
21207;DHT22;10761;48.532;8.026;2023-03-31T08:53:03;14.40;99.90
21207;DHT22;10761;48.532;8.026;2023-03-31T08:56:04;15.40;1.00
21207;DHT22;10761;48.532;8.026;2023-03-31T08:58:45;15.60;99.90
21207;DHT22;10761;48.532;8.026;2023-03-31T09:11:59;14.10;1.00
21207;DHT22;10761;48.532;8.026;2023-03-31T09:14:40;13.90;99.90
21207;DHT22;10761;48.532;8.026;2023-03-31T09:17:18;13.80;99.90
21207;DHT22;10761;48.532;8.026;2023-03-31T09:22:23;13.80;99.90
21207;DHT22;10761;48.532;8.026;2023-03-31T09:24:56;14.00;99.90
21207;DHT22;10761;48.532;8.026;2023-03-31T09:27:26;14.20;99.90
21207;DHT22;10761;48.532;8.026;2023-03-31T09:30:02;14.20;86.20
21207;DHT22;10761;48.532;8.026;2023-03-31T09:32:30;14.20;94.00
21207;DHT22;10761;48.532;8.026;2023-03-31T09:35:12;14.20;1.00
21207;DHT22;10761;48.532;8.026;2023-03-31T09:37:38;14.00;67.50
21207;DHT22;10761;48.532;8.026;2023-03-31T09:40:05;14.00;1.00
21207;DHT22;10761;48.532;8.026;2023-03-31T09:42:33;14.10;1.00
21207;DHT22;10761;48.532;8.026;2023-03-31T09:45:00;14.10;1.00
21207;DHT22;10761;48.532;8.026;2023-03-31T09:47:32;14.10;1.00
21207;DHT22;10761;48.532;8.026;2023-03-31T09:50:04;14.20;1.00
21207;DHT22;10761;48.532;8.026;2023-03-31T09:52:32;14.30;1.00
21207;DHT22;10761;48.532;8.026;2023-03-31T09:55:01;14.40;1.00
21207;DHT22;10761;48.532;8.026;2023-03-31T09:57:37;14.40;1.00
21207;DHT22;10761;48.532;8.026;2023-03-31T10:07:50;14.10;1.00
21207;DHT22;10761;48.532;8.026;2023-03-31T10:10:32;14.10;1.00
21207;DHT22;10761;48.532;8.026;2023-03-31T10:12:58;14.00;1.00
21207;DHT22;10761;48.532;8.026;2023-03-31T10:15:27;14.00;1.00
21207;DHT22;10761;48.532;8.026;2023-03-31T10:17:52;13.90;1.00
21207;DHT22;10761;48.532;8.026;2023-03-31T10:20:40;13.80;1.00
21207;DHT22;10761;48.532;8.026;2023-03-31T10:23:22;13.50;1.00
21207;DHT22;10761;48.532;8.026;2023-03-31T10:25:49;12.80;1.00
21207;DHT22;10761;48.532;8.026;2023-03-31T10:28:17;12.30;1.00
21207;DHT22;10761;48.532;8.026;2023-03-31T10:30:52;11.50;1.00
21207;DHT22;10761;48.532;8.026;2023-03-31T10:33:26;10.00;1.00
21207;DHT22;10761;48.532;8.026;2023-03-31T10:35:58;9.10;1.00
21207;DHT22;10761;48.532;8.026;2023-03-31T10:38:30;8.70;1.00
21207;DHT22;10761;48.532;8.026;2023-03-31T10:41:00;8.70;1.00
21207;DHT22;10761;48.532;8.026;2023-03-31T10:43:55;8.80;1.00
21207;DHT22;10761;48.532;8.026;2023-03-31T10:46:40;8.90;1.00
21207;DHT22;10761;48.532;8.026;2023-03-31T10:51:51;9.00;1.00
21207;DHT22;10761;48.532;8.026;2023-03-31T10:54:17;9.10;1.00
21207;DHT22;10761;48.532;8.026;2023-03-31T10:56:51;9.10;1.00
21207;DHT22;10761;48.532;8.026;2023-03-31T11:13:03;9.50;1.00
21207;DHT22;10761;48.532;8.026;2023-03-31T11:26:45;9.90;1.00
21207;DHT22;10761;48.532;8.026;2023-03-31T11:38:05;10.40;1.00
21207;DHT22;10761;48.532;8.026;2023-03-31T11:40:59;10.50;1.00
21207;DHT22;10761;48.532;8.026;2023-03-31T11:43:44;10.60;26.80
21207;DHT22;10761;48.532;8.026;2023-03-31T11:46:16;10.70;99.90
21207;DHT22;10761;48.532;8.026;2023-03-31T11:51:15;11.00;25.80
21207;DHT22;10761;48.532;8.026;2023-03-31T11:53:44;11.30;99.90
21207;DHT22;10761;48.532;8.026;2023-03-31T11:56:11;11.50;1.00
21207;DHT22;10761;48.532;8.026;2023-03-31T11:58:46;11.70;1.00
21207;DHT22;10761;48.532;8.026;2023-03-31T12:01:37;11.90;1.00
21207;DHT22;10761;48.532;8.026;2023-03-31T12:07:00;11.90;1.00
21207;DHT22;10761;48.532;8.026;2023-03-31T12:09:34;11.80;1.00
21207;DHT22;10761;48.532;8.026;2023-03-31T12:12:15;11.60;1.00
21207;DHT22;10761;48.532;8.026;2023-03-31T12:17:31;11.50;1.00
21207;DHT22;10761;48.532;8.026;2023-03-31T12:20:01;11.50;1.00
21207;DHT22;10761;48.532;8.026;2023-03-31T12:22:38;11.40;1.00
21207;DHT22;10761;48.532;8.026;2023-03-31T12:25:12;11.40;99.90
21207;DHT22;10761;48.532;8.026;2023-03-31T12:27:42;11.30;1.00
21207;DHT22;10761;48.532;8.026;2023-03-31T12:30:28;11.20;1.00
21207;DHT22;10761;48.532;8.026;2023-03-31T12:32:58;11.10;99.90
21207;DHT22;10761;48.532;8.026;2023-03-31T12:35:31;11.00;1.00
21207;DHT22;10761;48.532;8.026;2023-03-31T12:38:18;10.90;1.00
21207;DHT22;10761;48.532;8.026;2023-03-31T12:46:16;10.60;1.00
21207;DHT22;10761;48.532;8.026;2023-03-31T12:56:26;9.50;1.00
21207;DHT22;10761;48.532;8.026;2023-03-31T12:58:51;9.50;1.00
21207;DHT22;10761;48.532;8.026;2023-03-31T13:01:23;9.40;1.00
21207;DHT22;10761;48.532;8.026;2023-03-31T13:16:52;10.70;1.00
21207;DHT22;10761;48.532;8.026;2023-03-31T13:19:35;11.50;1.00
21207;DHT22;10761;48.532;8.026;2023-03-31T13:22:03;12.50;1.00
21207;DHT22;10761;48.532;8.026;2023-03-31T13:24:31;13.40;1.00
21207;DHT22;10761;48.532;8.026;2023-03-31T13:27:02;13.30;99.90
21207;DHT22;10761;48.532;8.026;2023-03-31T13:29:43;12.80;1.00
21207;DHT22;10761;48.532;8.026;2023-03-31T13:32:23;12.10;1.00
21207;DHT22;10761;48.532;8.026;2023-03-31T13:35:30;11.60;1.00
21207;DHT22;10761;48.532;8.026;2023-03-31T13:38:01;11.20;81.70
21207;DHT22;10761;48.532;8.026;2023-03-31T13:43:52;11.00;1.00
21207;DHT22;10761;48.532;8.026;2023-03-31T13:49:45;11.80;99.90
21207;DHT22;10761;48.532;8.026;2023-03-31T13:52:13;13.10;1.00
21207;DHT22;10761;48.532;8.026;2023-03-31T13:57:55;14.10;1.00
21207;DHT22;10761;48.532;8.026;2023-03-31T14:09:03;14.30;1.00
21207;DHT22;10761;48.532;8.026;2023-03-31T14:11:30;14.60;1.00
21207;DHT22;10761;48.532;8.026;2023-03-31T14:16:27;15.30;1.00
21207;DHT22;10761;48.532;8.026;2023-03-31T14:19:04;15.40;99.90
21207;DHT22;10761;48.532;8.026;2023-03-31T14:25:05;14.80;99.90
21207;DHT22;10761;48.532;8.026;2023-03-31T14:27:55;13.80;1.00
21207;DHT22;10761;48.532;8.026;2023-03-31T14:30:44;13.30;1.00
21207;DHT22;10761;48.532;8.026;2023-03-31T14:33:58;13.60;1.00
21207;DHT22;10761;48.532;8.026;2023-03-31T14:38:36;12.90;1.00
21207;DHT22;10761;48.532;8.026;2023-03-31T14:41:03;12.60;1.00
21207;DHT22;10761;48.532;8.026;2023-03-31T14:43:31;12.40;1.00
21207;DHT22;10761;48.532;8.026;2023-03-31T14:46:05;12.30;99.90
21207;DHT22;10761;48.532;8.026;2023-03-31T14:48:43;12.20;99.90
21207;DHT22;10761;48.532;8.026;2023-03-31T14:51:11;12.10;99.90
21207;DHT22;10761;48.532;8.026;2023-03-31T14:53:38;12.10;99.90
21207;DHT22;10761;48.532;8.026;2023-03-31T14:56:07;12.10;6.00
21207;DHT22;10761;48.532;8.026;2023-03-31T14:58:38;12.10;1.00
21207;DHT22;10761;48.532;8.026;2023-03-31T15:01:06;12.10;1.00
21207;DHT22;10761;48.532;8.026;2023-03-31T15:03:35;12.00;1.00
21207;DHT22;10761;48.532;8.026;2023-03-31T15:06:06;12.00;1.00
21207;DHT22;10761;48.532;8.026;2023-03-31T15:08:34;12.00;1.00
21207;DHT22;10761;48.532;8.026;2023-03-31T15:11:04;12.00;1.00
21207;DHT22;10761;48.532;8.026;2023-03-31T15:13:40;12.00;1.00
21207;DHT22;10761;48.532;8.026;2023-03-31T15:19:06;11.90;1.00
21207;DHT22;10761;48.532;8.026;2023-03-31T15:21:36;11.90;1.00
21207;DHT22;10761;48.532;8.026;2023-03-31T15:24:03;11.90;1.00
21207;DHT22;10761;48.532;8.026;2023-03-31T15:26:32;11.80;99.90
21207;DHT22;10761;48.532;8.026;2023-03-31T15:29:15;11.60;1.00
21207;DHT22;10761;48.532;8.026;2023-03-31T15:31:42;11.00;40.80
21207;DHT22;10761;48.532;8.026;2023-03-31T15:34:31;9.30;99.90
21207;DHT22;10761;48.532;8.026;2023-03-31T15:36:58;8.80;1.00
21207;DHT22;10761;48.532;8.026;2023-03-31T15:39:25;8.60;1.00
21207;DHT22;10761;48.532;8.026;2023-03-31T15:41:52;8.50;1.00
21207;DHT22;10761;48.532;8.026;2023-03-31T15:52:34;8.60;33.50
21207;DHT22;10761;48.532;8.026;2023-03-31T15:55:04;8.50;76.20
21207;DHT22;10761;48.532;8.026;2023-03-31T15:57:46;8.50;1.00
21207;DHT22;10761;48.532;8.026;2023-03-31T16:03:23;8.60;4.00
21207;DHT22;10761;48.532;8.026;2023-03-31T16:06:21;8.70;1.00
21207;DHT22;10761;48.532;8.026;2023-03-31T16:08:50;8.70;1.00
21207;DHT22;10761;48.532;8.026;2023-03-31T16:11:22;8.80;1.00
21207;DHT22;10761;48.532;8.026;2023-03-31T16:13:50;8.90;1.00
21207;DHT22;10761;48.532;8.026;2023-03-31T16:16:18;9.00;1.00
21207;DHT22;10761;48.532;8.026;2023-03-31T16:18:50;9.00;1.00
21207;DHT22;10761;48.532;8.026;2023-03-31T16:21:24;9.10;1.00
21207;DHT22;10761;48.532;8.026;2023-03-31T16:23:56;9.10;1.00
21207;DHT22;10761;48.532;8.026;2023-03-31T16:26:23;9.30;1.00
21207;DHT22;10761;48.532;8.026;2023-03-31T16:28:51;9.30;1.00
21207;DHT22;10761;48.532;8.026;2023-03-31T16:31:31;9.50;1.00
21207;DHT22;10761;48.532;8.026;2023-03-31T16:33:59;9.70;1.00
21207;DHT22;10761;48.532;8.026;2023-03-31T16:36:25;9.80;1.00
21207;DHT22;10761;48.532;8.026;2023-03-31T16:38:52;10.00;1.00
21207;DHT22;10761;48.532;8.026;2023-03-31T16:41:21;10.20;1.00
21207;DHT22;10761;48.532;8.026;2023-03-31T16:43:48;10.30;1.00
21207;DHT22;10761;48.532;8.026;2023-03-31T16:46:17;10.30;1.00
21207;DHT22;10761;48.532;8.026;2023-03-31T16:48:42;10.40;1.00
21207;DHT22;10761;48.532;8.026;2023-03-31T16:51:08;10.50;99.90
21207;DHT22;10761;48.532;8.026;2023-03-31T16:53:34;10.50;99.90
21207;DHT22;10761;48.532;8.026;2023-03-31T16:56:01;10.60;1.00
21207;DHT22;10761;48.532;8.026;2023-03-31T16:58:27;10.60;1.00
21207;DHT22;10761;48.532;8.026;2023-03-31T17:00:54;10.50;1.00
21207;DHT22;10761;48.532;8.026;2023-03-31T17:03:21;10.50;1.00
21207;DHT22;10761;48.532;8.026;2023-03-31T17:05:49;10.50;1.00
21207;DHT22;10761;48.532;8.026;2023-03-31T17:08:17;10.50;1.00
21207;DHT22;10761;48.532;8.026;2023-03-31T17:11:00;10.70;1.00
21207;DHT22;10761;48.532;8.026;2023-03-31T17:13:26;10.70;99.90
21207;DHT22;10761;48.532;8.026;2023-03-31T17:15:52;10.70;1.00
21207;DHT22;10761;48.532;8.026;2023-03-31T17:18:18;10.70;28.80
21207;DHT22;10761;48.532;8.026;2023-03-31T17:20:44;11.20;1.00
21207;DHT22;10761;48.532;8.026;2023-03-31T17:23:09;11.60;1.00
21207;DHT22;10761;48.532;8.026;2023-03-31T17:25:35;11.40;99.90
21207;DHT22;10761;48.532;8.026;2023-03-31T17:28:02;11.20;1.00
21207;DHT22;10761;48.532;8.026;2023-03-31T17:30:28;11.00;1.00
21207;DHT22;10761;48.532;8.026;2023-03-31T17:32:55;10.90;1.00
21207;DHT22;10761;48.532;8.026;2023-03-31T17:35:21;10.90;1.00
21207;DHT22;10761;48.532;8.026;2023-03-31T17:37:47;10.90;99.90
21207;DHT22;10761;48.532;8.026;2023-03-31T17:40:15;10.90;1.00
21207;DHT22;10761;48.532;8.026;2023-03-31T17:42:41;10.90;99.90
21207;DHT22;10761;48.532;8.026;2023-03-31T17:45:08;10.90;99.90
21207;DHT22;10761;48.532;8.026;2023-03-31T17:47:33;10.80;1.00
21207;DHT22;10761;48.532;8.026;2023-03-31T17:49:59;10.80;1.00
21207;DHT22;10761;48.532;8.026;2023-03-31T17:52:25;10.70;99.90
21207;DHT22;10761;48.532;8.026;2023-03-31T17:54:52;10.70;99.90
21207;DHT22;10761;48.532;8.026;2023-03-31T17:57:17;10.70;1.00
21207;DHT22;10761;48.532;8.026;2023-03-31T17:59:43;10.70;1.00
21207;DHT22;10761;48.532;8.026;2023-03-31T18:02:12;10.70;1.00
21207;DHT22;10761;48.532;8.026;2023-03-31T18:04:40;10.80;99.90
21207;DHT22;10761;48.532;8.026;2023-03-31T18:07:06;10.80;1.00
21207;DHT22;10761;48.532;8.026;2023-03-31T18:09:32;10.80;95.10
21207;DHT22;10761;48.532;8.026;2023-03-31T18:11:58;10.90;99.90
21207;DHT22;10761;48.532;8.026;2023-03-31T18:14:24;10.90;99.90
21207;DHT22;10761;48.532;8.026;2023-03-31T18:16:49;10.90;1.00
21207;DHT22;10761;48.532;8.026;2023-03-31T18:19:15;10.90;1.00
21207;DHT22;10761;48.532;8.026;2023-03-31T18:21:41;10.90;99.90
21207;DHT22;10761;48.532;8.026;2023-03-31T18:24:07;10.90;99.90
21207;DHT22;10761;48.532;8.026;2023-03-31T18:26:32;10.90;7.60
21207;DHT22;10761;48.532;8.026;2023-03-31T18:28:58;10.90;1.00
21207;DHT22;10761;48.532;8.026;2023-03-31T18:31:24;10.80;1.00
21207;DHT22;10761;48.532;8.026;2023-03-31T18:33:52;10.80;1.00
21207;DHT22;10761;48.532;8.026;2023-03-31T18:36:20;10.80;1.00
21207;DHT22;10761;48.532;8.026;2023-03-31T18:38:47;10.80;1.00
21207;DHT22;10761;48.532;8.026;2023-03-31T18:41:14;10.80;1.00
21207;DHT22;10761;48.532;8.026;2023-03-31T18:43:40;10.80;1.00
21207;DHT22;10761;48.532;8.026;2023-03-31T18:46:06;10.80;99.90
21207;DHT22;10761;48.532;8.026;2023-03-31T18:48:33;10.90;1.00
21207;DHT22;10761;48.532;8.026;2023-03-31T18:50:59;10.90;1.00